Frank Wiley Field
KMLS : now visible

Airfield :











YOU CAN JOIN US ON...

 
LOGIN :

Register | Disclaimer

   EN    FR    IT 

 









Legend :    VFR   Marginal VFR   IFR   Intensive IFR   Very Intensive IFR
Visi :
Ceiling :
>= 8 km
>= 3000ft
5 to 8 km
1000 to 3000 ft
1500m to 5 km
500 to 1000 ft
800 to 1500m
200 to 500 ft
< 800m
< 200 ft
Symbols :   Thunderstorms  Fog  Heavy snow  Heavy precipitations  Wind > 20 kt







- Airport Elevation : 2630 ft
- IATA code : MLS


KMLS - Frank Wiley Field

CURRENT METAR :
  • 192253Z AUTO 11005KT 10SM BKN044 OVC060 08/M01 A3004 RMK AO2 SLP187 T00831006

EXPIRED METARs :
  • 192153Z AUTO 07008KT 10SM SCT047 OVC060 09/00 A3005 RMK AO2 SLP188 T00890000
  • 192053Z AUTO 06009KT 10SM BKN044 OVC065 09/M01 A3006 RMK AO2 SLP192 T00891006 57005

TAF KMLS
Valid from the 19 at 18:00 until the 20 at 18:00 UTC


191734Z 1918/2018 11009KT P6SM SCT030 OVC060
FM200200 10007KT P6SM OVC100
KZLC FIR / North America



MET'MAP, your aeronautical weather chart ! - Copyright ORBIFLY December 2007 - Disclaimer

ORBIFLY MET'MAP TEAM :

Programming & Development : Alexandra Zaïnal
Concept & Development : Baudouin d'Aumeries
Co-Development & Prog : Marc-Olivier Méhu
Technical & hardware support : Manuel Goepfert

Contact : metmap@orbifly.com




SOURCES & CREDITS :

   NOAA       Earth
Advisory